createdAt,value
2023-05-14T00:00:13.168Z,101592.88
2023-05-14T00:02:14.613Z,101594.81
2023-05-14T00:04:16.172Z,101592.88
2023-05-14T00:06:20.639Z,101592.88
2023-05-14T00:08:22.089Z,101596.50
2023-05-14T00:10:23.792Z,101596.31
2023-05-14T00:12:26.626Z,101577.91
2023-05-14T00:14:31.270Z,101580.66
2023-05-14T00:16:32.905Z,101583.41
2023-05-14T00:18:34.485Z,101591.66
2023-05-14T00:20:35.944Z,101579.84
2023-05-14T00:22:37.588Z,101579.84
2023-05-14T00:24:38.993Z,101581.72
2023-05-14T00:26:40.542Z,101579.84
2023-05-14T00:28:41.976Z,101576.22
2023-05-14T00:30:43.441Z,101578.75
2023-05-14T00:32:44.981Z,101573.25
2023-05-14T00:34:46.508Z,101574.97
2023-05-14T00:36:48.089Z,101567.56
2023-05-14T00:38:49.556Z,101577.50
2023-05-14T00:40:51.937Z,101575.59
2023-05-14T00:42:53.874Z,101564.81
2023-05-14T00:44:55.445Z,101573.06
2023-05-14T00:46:57.014Z,101564.81
2023-05-14T00:48:59.046Z,101560.41
2023-05-14T00:51:00.522Z,101561.25
2023-05-14T00:53:02.067Z,101554.91
2023-05-14T00:55:04.641Z,101555.75
2023-05-14T00:57:06.716Z,101560.19
2023-05-14T00:59:08.332Z,101559.13
2023-05-14T01:01:10.142Z,101558.09
2023-05-14T01:03:11.794Z,101553.44
2023-05-14T01:05:13.396Z,101555.34
2023-05-14T01:07:17.806Z,101560.81
2023-05-14T01:09:29.716Z,101551.75
2023-05-14T01:11:36.704Z,101544.56
2023-05-14T01:13:51.305Z,101547.31
2023-05-14T01:15:54.440Z,101549.22
2023-05-14T01:18:04.567Z,101561.03
2023-05-14T01:20:07.316Z,101558.28
2023-05-14T01:22:08.976Z,101556.38
2023-05-14T01:24:10.558Z,101553.63
2023-05-14T01:26:11.984Z,101553.63
2023-05-14T01:28:27.786Z,101567.16
2023-05-14T01:30:31.095Z,101567.16
2023-05-14T01:32:33.633Z,101568.84
2023-05-14T01:34:39.810Z,101559.78
2023-05-14T01:36:42.113Z,101558.91
2023-05-14T01:38:45.808Z,101555.34
2023-05-14T01:40:48.208Z,101550.88
2023-05-14T01:42:51.939Z,101552.81
2023-05-14T01:44:53.474Z,101557.25
2023-05-14T01:46:54.898Z,101552.81
2023-05-14T01:48:56.287Z,101555.34
2023-05-14T01:50:57.818Z,101553.44
2023-05-14T01:52:59.368Z,101561.66
2023-05-14T01:55:00.991Z,101563.38
2023-05-14T01:57:02.465Z,101558.09
2023-05-14T01:59:03.985Z,101560.81
2023-05-14T02:01:05.478Z,101557.25
2023-05-14T02:03:07.096Z,101558.28
2023-05-14T02:05:09.243Z,101562.06
2023-05-14T02:07:10.749Z,101558.50
2023-05-14T02:09:12.200Z,101570.53
2023-05-14T02:11:13.926Z,101566.72
2023-05-14T02:13:16.808Z,101574.13
2023-05-14T02:15:18.427Z,101565.91
2023-05-14T02:17:19.877Z,101570.53
2023-05-14T02:19:21.327Z,101558.50
2023-05-14T02:21:22.772Z,101556.59
2023-05-14T02:23:34.228Z,101558.50
2023-05-14T02:25:42.256Z,101557.00
2023-05-14T02:27:43.839Z,101554.06
2023-05-14T02:29:45.849Z,101550.47
2023-05-14T02:31:47.519Z,101553.22
2023-05-14T02:33:49.022Z,101549.63
2023-05-14T02:35:50.493Z,101556.16
2023-05-14T02:37:52.026Z,101546.88
2023-05-14T02:39:53.511Z,101540.53
2023-05-14T02:41:55.031Z,101545.81
2023-05-14T02:43:56.843Z,101543.94
2023-05-14T02:45:58.272Z,101542.03
2023-05-14T02:47:59.775Z,101524.25
2023-05-14T02:50:01.376Z,101536.75
2023-05-14T02:52:03.517Z,101542.03
2023-05-14T02:54:05.075Z,101546.69
2023-05-14T02:56:06.656Z,101535.91
2023-05-14T02:58:08.068Z,101541.41
2023-05-14T03:00:09.910Z,101541.41
2023-05-14T03:02:11.992Z,101546.88
2023-05-14T03:04:13.818Z,101541.41
2023-05-14T03:06:15.391Z,101543.94
2023-05-14T03:08:16.777Z,101546.69
2023-05-14T03:10:18.246Z,101539.28
2023-05-14T03:12:19.693Z,101538.25
2023-05-14T03:14:21.092Z,101541.81
2023-05-14T03:16:22.832Z,101548.16
2023-05-14T03:18:24.492Z,101540.13
2023-05-14T03:20:26.612Z,101541.19
2023-05-14T03:22:28.090Z,101541.19
2023-05-14T03:24:30.288Z,101541.19
2023-05-14T03:26:31.846Z,101551.09
2023-05-14T03:28:33.218Z,101544.78
2023-05-14T03:30:34.877Z,101545.59
2023-05-14T03:32:37.385Z,101546.47
2023-05-14T03:34:38.897Z,101541.81
2023-05-14T03:36:40.354Z,101549.00
2023-05-14T03:38:41.963Z,101546.28
2023-05-14T03:40:44.256Z,101545.19
2023-05-14T03:42:45.765Z,101544.34
2023-05-14T03:44:47.193Z,101545.41
2023-05-14T03:46:48.654Z,101541.81
2023-05-14T03:48:50.237Z,101540.13
2023-05-14T03:50:52.194Z,101541.00
2023-05-14T03:52:54.908Z,101544.56
2023-05-14T03:54:56.411Z,101541.81
2023-05-14T03:56:57.839Z,101549.22
2023-05-14T03:58:59.462Z,101540.78
2023-05-14T04:01:00.920Z,101538.88
2023-05-14T04:03:02.570Z,101538.88
2023-05-14T04:05:04.257Z,101547.94
2023-05-14T04:07:05.751Z,101544.34
2023-05-14T04:09:07.322Z,101546.06
2023-05-14T04:11:08.767Z,101549.84
2023-05-14T04:13:10.436Z,101548.16
2023-05-14T04:15:11.919Z,101548.16
2023-05-14T04:17:13.450Z,101547.31
2023-05-14T04:19:14.941Z,101550.88
2023-05-14T04:21:16.544Z,101548.16
2023-05-14T04:23:17.970Z,101544.34
2023-05-14T04:25:19.956Z,101549.84
2023-05-14T04:27:21.748Z,101551.56
2023-05-14T04:29:23.211Z,101542.44
2023-05-14T04:31:24.743Z,101547.09
2023-05-14T04:33:26.210Z,101549.00
2023-05-14T04:35:28.653Z,101551.56
2023-05-14T04:37:30.943Z,101556.19
2023-05-14T04:39:32.381Z,101561.03
2023-05-14T04:41:33.920Z,101556.38
2023-05-14T04:43:35.478Z,101553.63
2023-05-14T04:45:37.080Z,101558.09
2023-05-14T04:47:38.524Z,101558.09
2023-05-14T04:49:40.046Z,101551.75
2023-05-14T04:51:41.527Z,101549.63
2023-05-14T04:53:42.996Z,101555.13
2023-05-14T04:55:44.674Z,101549.63
2023-05-14T04:57:46.104Z,101551.56
2023-05-14T04:59:47.505Z,101544.16
2023-05-14T05:01:49.034Z,101549.00
2023-05-14T05:03:50.932Z,101545.41
2023-05-14T05:05:52.882Z,101541.81
2023-05-14T05:07:54.574Z,101533.78
2023-05-14T05:09:55.999Z,101537.16
2023-05-14T05:11:57.579Z,101541.00
2023-05-14T05:13:59.111Z,101539.06
2023-05-14T05:16:00.704Z,101545.41
2023-05-14T05:18:02.227Z,101543.31
2023-05-14T05:20:05.638Z,101541.63
2023-05-14T05:22:07.164Z,101538.88
2023-05-14T05:24:08.826Z,101544.56
2023-05-14T05:26:10.263Z,101541.00
2023-05-14T05:28:11.800Z,101542.88
2023-05-14T05:30:13.499Z,101538.44
2023-05-14T05:32:15.000Z,101544.16
2023-05-14T05:34:16.585Z,101543.28
2023-05-14T05:36:18.023Z,101547.94
2023-05-14T05:38:19.529Z,101553.22
2023-05-14T05:40:20.993Z,101547.72
2023-05-14T05:42:22.575Z,101557.66
2023-05-14T05:44:24.036Z,101558.72
2023-05-14T05:46:25.550Z,101566.72
2023-05-14T05:48:27.018Z,101563.16
2023-05-14T05:50:28.482Z,101572.22
2023-05-14T05:52:30.034Z,101570.53
2023-05-14T05:54:34.624Z,101572.44
2023-05-14T05:56:36.092Z,101574.34
2023-05-14T05:58:38.723Z,101582.56
2023-05-14T06:00:40.145Z,101570.72
2023-05-14T06:02:41.802Z,101588.91
2023-05-14T06:04:43.470Z,101587.00
2023-05-14T06:06:44.903Z,101582.38
2023-05-14T06:08:46.315Z,101589.53
2023-05-14T06:10:47.868Z,101584.03
2023-05-14T06:12:49.288Z,101591.22
2023-05-14T06:14:51.331Z,101579.41
2023-05-14T06:16:52.958Z,101589.53
2023-05-14T06:18:55.369Z,101595.03
2023-05-14T06:20:57.946Z,101595.22
2023-05-14T06:22:59.382Z,101603.47
2023-05-14T06:25:00.930Z,101610.84
2023-05-14T06:27:02.406Z,101608.94
2023-05-14T06:29:03.841Z,101604.31
2023-05-14T06:31:05.259Z,101608.75
2023-05-14T06:33:06.873Z,101600.50
2023-05-14T06:35:08.528Z,101598.63
2023-05-14T06:37:11.475Z,101603.06
2023-05-14T06:39:12.994Z,101601.38
2023-05-14T06:41:14.479Z,101607.69
2023-05-14T06:43:15.965Z,101608.75
2023-05-14T06:45:17.501Z,101614.22
2023-05-14T06:47:18.938Z,101611.69
2023-05-14T06:49:21.147Z,101605.38
2023-05-14T06:51:22.540Z,101613.41
2023-05-14T06:53:23.930Z,101607.91
2023-05-14T06:55:25.612Z,101605.16
2023-05-14T06:57:27.095Z,101603.25
2023-05-14T06:59:28.825Z,101605.78
2023-05-14T07:01:30.598Z,101611.28
2023-05-14T07:03:32.223Z,101603.06
2023-05-14T07:05:33.880Z,101613.19
2023-05-14T07:07:35.296Z,101612.34
2023-05-14T07:09:36.675Z,101603.25
2023-05-14T07:11:38.149Z,101606.00
2023-05-14T07:13:40.117Z,101612.56
2023-05-14T07:15:41.578Z,101607.91
2023-05-14T07:17:43.103Z,101605.16
2023-05-14T07:19:44.533Z,101611.50
2023-05-14T07:21:46.180Z,101607.69
2023-05-14T07:23:47.649Z,101620.38
2023-05-14T07:25:49.092Z,101621.22
2023-05-14T07:27:50.471Z,101622.94
2023-05-14T07:29:51.970Z,101615.72
2023-05-14T07:31:53.471Z,101627.56
2023-05-14T07:33:54.960Z,101629.47
2023-05-14T07:35:56.899Z,101625.88
2023-05-14T07:37:58.782Z,101616.78
2023-05-14T07:40:00.252Z,101620.38
2023-05-14T07:42:01.777Z,101623.13
2023-05-14T07:44:03.217Z,101627.75
2023-05-14T07:46:04.936Z,101614.03
2023-05-14T07:48:06.749Z,101602.19
2023-05-14T07:50:08.837Z,101622.06
2023-05-14T07:52:10.368Z,101622.94
2023-05-14T07:54:11.867Z,101611.94
2023-05-14T07:56:13.353Z,101612.78
2023-05-14T07:58:14.998Z,101611.09
2023-05-14T08:00:17.064Z,101617.44
2023-05-14T08:02:18.779Z,101618.47
2023-05-14T08:04:20.323Z,101617.66
2023-05-14T08:06:22.734Z,101614.03
2023-05-14T08:08:24.234Z,101612.16
2023-05-14T08:10:26.182Z,101613.00
2023-05-14T08:12:28.678Z,101618.28
2023-05-14T08:14:30.160Z,101610.03
2023-05-14T08:16:31.564Z,101608.13
2023-05-14T08:18:33.091Z,101612.78
2023-05-14T08:20:34.755Z,101619.97
2023-05-14T08:22:36.277Z,101618.28
2023-05-14T08:24:37.731Z,101621.03
2023-05-14T08:26:39.113Z,101629.25
2023-05-14T08:28:40.585Z,101623.97
2023-05-14T08:30:42.162Z,101628.63
2023-05-14T08:32:43.872Z,101622.06
2023-05-14T08:34:45.458Z,101619.31
2023-05-14T08:36:46.939Z,101621.03
2023-05-14T08:38:50.344Z,101621.84
2023-05-14T08:41:00.614Z,101625.47
2023-05-14T08:43:02.386Z,101627.34
2023-05-14T08:45:05.770Z,101619.97
2023-05-14T08:47:07.399Z,101629.06
2023-05-14T08:49:21.047Z,101635.59
2023-05-14T08:51:22.704Z,101629.25
2023-05-14T08:53:26.859Z,101626.72
2023-05-14T08:55:28.526Z,101629.47
2023-05-14T08:57:33.289Z,101632.22
2023-05-14T08:59:34.713Z,101633.25
2023-05-14T09:01:37.921Z,101634.94
2023-05-14T09:03:39.543Z,101634.75
2023-05-14T09:05:41.366Z,101629.25
2023-05-14T09:07:42.905Z,101622.94
2023-05-14T09:09:45.915Z,101626.50
2023-05-14T09:11:48.419Z,101619.13
2023-05-14T09:13:49.881Z,101626.50
2023-05-14T09:15:52.029Z,101623.75
2023-05-14T09:17:53.584Z,101626.72
2023-05-14T09:19:55.915Z,101627.56
2023-05-14T09:22:00.991Z,101627.56
2023-05-14T09:24:02.776Z,101616.56
2023-05-14T09:26:05.489Z,101621.84
2023-05-14T09:28:08.714Z,101618.06
2023-05-14T09:30:11.215Z,101610.66
2023-05-14T09:32:12.893Z,101617.03
2023-05-14T09:34:23.303Z,101617.66
2023-05-14T09:36:26.997Z,101613.22
2023-05-14T09:38:31.574Z,101615.13
2023-05-14T09:40:33.018Z,101618.69
2023-05-14T09:42:34.441Z,101623.34
2023-05-14T09:44:37.994Z,101626.94
2023-05-14T09:46:39.473Z,101616.16
2023-05-14T09:48:41.012Z,101622.53
2023-05-14T09:50:46.075Z,101610.47
2023-05-14T09:52:47.604Z,101613.22
2023-05-14T09:54:50.815Z,101622.09
2023-05-14T09:56:53.861Z,101626.72
2023-05-14T09:58:56.708Z,101621.06
2023-05-14T10:00:58.575Z,101620.19
2023-05-14T10:03:04.174Z,101613.66
2023-05-14T10:05:06.855Z,101615.56
2023-05-14T10:07:08.638Z,101622.94
2023-05-14T10:09:12.085Z,101615.56
2023-05-14T10:11:14.924Z,101617.44
2023-05-14T10:13:19.918Z,101615.75
2023-05-14T10:15:25.648Z,101614.72
2023-05-14T10:17:31.101Z,101613.66
2023-05-14T10:19:34.207Z,101622.53
2023-05-14T10:21:36.990Z,101617.03
2023-05-14T10:23:39.017Z,101621.50
2023-05-14T10:25:41.088Z,101617.69
2023-05-14T10:27:42.694Z,101609.47
2023-05-14T10:29:48.242Z,101610.31
2023-05-14T10:31:51.564Z,101610.31
2023-05-14T10:33:54.600Z,101610.31
2023-05-14T10:36:02.031Z,101610.31
2023-05-14T10:38:07.815Z,101601.22
2023-05-14T10:40:09.943Z,101610.31
2023-05-14T10:42:13.151Z,101603.78
2023-05-14T10:44:15.799Z,101607.34
2023-05-14T10:46:17.487Z,101603.56
2023-05-14T10:48:19.663Z,101602.31
2023-05-14T10:50:21.136Z,101605.22
2023-05-14T10:52:23.267Z,101597.00
2023-05-14T10:54:27.308Z,101597.91
2023-05-14T10:56:29.079Z,101590.50
2023-05-14T10:58:32.306Z,101578.66
2023-05-14T11:00:34.206Z,101581.41
2023-05-14T11:02:37.448Z,101571.28
2023-05-14T11:04:41.557Z,101575.03
2023-05-14T11:06:43.497Z,101571.28
2023-05-14T11:08:46.251Z,101581.00
2023-05-14T11:10:48.886Z,101578.25
2023-05-14T11:12:53.519Z,101569.81
2023-05-14T11:14:57.055Z,101569.81
2023-05-14T11:16:58.594Z,101572.56
2023-05-14T11:19:04.436Z,101568.72
2023-05-14T11:21:06.158Z,101574.22
2023-05-14T11:23:08.402Z,101570.66
2023-05-14T11:25:10.572Z,101567.91
2023-05-14T11:27:12.155Z,101559.66
2023-05-14T11:29:13.578Z,101554.16
2023-05-14T11:31:15.158Z,101557.75
2023-05-14T11:33:17.717Z,101555.66
2023-05-14T11:35:19.182Z,101543.59
2023-05-14T11:37:21.046Z,101546.16
2023-05-14T11:39:22.631Z,101546.16
2023-05-14T11:41:24.484Z,101556.09
2023-05-14T11:43:29.299Z,101548.69
2023-05-14T11:45:32.977Z,101548.69
2023-05-14T11:47:34.500Z,101544.88
2023-05-14T11:49:37.672Z,101543.19
2023-05-14T11:51:39.129Z,101540.44
2023-05-14T11:53:40.680Z,101535.81
2023-05-14T11:55:42.204Z,101533.91
2023-05-14T11:57:43.941Z,101529.28
2023-05-14T11:59:45.561Z,101531.81
2023-05-14T12:01:49.011Z,101536.22
2023-05-14T12:03:51.660Z,101537.94
2023-05-14T12:05:57.093Z,101531.41
2023-05-14T12:07:58.520Z,101526.72
2023-05-14T12:10:01.341Z,101519.34
2023-05-14T12:12:07.585Z,101517.44
2023-05-14T12:14:15.893Z,101512.16
2023-05-14T12:16:18.297Z,101512.16
2023-05-14T12:18:24.533Z,101511.97
2023-05-14T12:20:29.455Z,101506.47
2023-05-14T12:22:30.989Z,101516.38
2023-05-14T12:24:33.160Z,101512.59
2023-05-14T12:26:34.797Z,101509.63
2023-05-14T12:28:38.962Z,101507.72
2023-05-14T12:30:41.240Z,101504.13
2023-05-14T12:32:43.929Z,101497.38
2023-05-14T12:34:45.488Z,101503.91
2023-05-14T12:36:46.963Z,101494.84
2023-05-14T12:38:49.057Z,101495.47
2023-05-14T12:40:50.716Z,101492.72
2023-05-14T12:42:53.288Z,101489.13
2023-05-14T12:44:56.238Z,101489.97
2023-05-14T12:46:57.938Z,101484.47
2023-05-14T12:48:59.441Z,101477.94
2023-05-14T12:51:00.992Z,101467.78
2023-05-14T12:53:03.002Z,101468.63
2023-05-14T12:55:04.708Z,101464.81
2023-05-14T12:57:06.324Z,101455.53
2023-05-14T12:59:09.347Z,101461.66
2023-05-14T13:01:10.865Z,101452.56
2023-05-14T13:03:12.370Z,101445.19
2023-05-14T13:05:13.813Z,101446.88
2023-05-14T13:07:15.558Z,101451.28
2023-05-14T13:09:16.974Z,101445.78
2023-05-14T13:11:18.399Z,101442.00
2023-05-14T13:13:20.187Z,101444.75
2023-05-14T13:15:22.393Z,101436.28
2023-05-14T13:17:24.136Z,101434.41
2023-05-14T13:19:25.651Z,101426.16
2023-05-14T13:21:27.188Z,101426.78
2023-05-14T13:23:28.631Z,101424.88
2023-05-14T13:25:30.309Z,101420.25
2023-05-14T13:27:31.778Z,101421.91
2023-05-14T13:29:33.189Z,101417.50
2023-05-14T13:31:34.788Z,101421.09
2023-05-14T13:33:37.330Z,101412.84
2023-05-14T13:35:38.768Z,101421.09
2023-05-14T13:37:40.276Z,101404.59
2023-05-14T13:39:41.698Z,101398.88
2023-05-14T13:41:43.253Z,101400.59
2023-05-14T13:43:44.771Z,101400.38
2023-05-14T13:45:46.304Z,101398.25
2023-05-14T13:47:49.525Z,101396.31
2023-05-14T13:49:54.671Z,101398.84
2023-05-14T13:51:56.073Z,101390.63
2023-05-14T13:53:57.530Z,101378.16
2023-05-14T13:56:01.248Z,101398.66
2023-05-14T13:58:03.778Z,101393.16
2023-05-14T14:00:06.600Z,101385.78
2023-05-14T14:02:08.196Z,101384.91
2023-05-14T14:04:10.302Z,101386.59
2023-05-14T14:06:11.791Z,101386.38
2023-05-14T14:10:23.556Z,101374.13
2023-05-14T14:12:24.966Z,101367.56
2023-05-14T14:14:28.033Z,101368.19
2023-05-14T14:16:29.642Z,101375.41
2023-05-14T14:18:31.186Z,101366.06
2023-05-14T14:20:32.676Z,101368.81
2023-05-14T14:22:34.153Z,101377.06
2023-05-14T14:24:35.608Z,101356.78
2023-05-14T14:26:37.252Z,101362.28
2023-05-14T14:28:40.244Z,101360.56
2023-05-14T14:30:42.219Z,101348.53
2023-05-14T14:32:44.515Z,101349.16
2023-05-14T14:34:46.326Z,101339.84
2023-05-14T14:36:47.741Z,101345.97
2023-05-14T14:38:49.211Z,101347.69
2023-05-14T14:40:50.669Z,101340.06
2023-05-14T14:42:52.094Z,101329.06
2023-05-14T14:44:53.506Z,101330.75
2023-05-14T14:46:54.928Z,101328.00
2023-05-14T14:48:56.380Z,101325.25
2023-05-14T14:50:57.937Z,101332.47
2023-05-14T14:52:59.325Z,101326.97
2023-05-14T14:55:00.777Z,101326.09
2023-05-14T14:57:02.221Z,101320.38
2023-05-14T14:59:04.034Z,101320.38
2023-05-14T15:01:05.550Z,101318.28
2023-05-14T15:03:08.724Z,101323.56
2023-05-14T15:05:10.205Z,101314.00
2023-05-14T15:07:11.908Z,101310.44
2023-05-14T15:09:13.497Z,101311.25
2023-05-14T15:11:14.899Z,101314.00
2023-05-14T15:13:16.393Z,101319.50
2023-05-14T15:15:17.800Z,101315.94
2023-05-14T15:17:19.191Z,101316.75
2023-05-14T15:19:20.754Z,101313.19
2023-05-14T15:21:22.232Z,101323.94
2023-05-14T15:23:23.672Z,101305.53
2023-05-14T15:25:26.269Z,101310.84
2023-05-14T15:27:27.877Z,101306.19
2023-05-14T15:29:29.516Z,101308.72
2023-05-14T15:31:31.486Z,101315.06
2023-05-14T15:33:33.960Z,101309.56
2023-05-14T15:35:36.457Z,101308.50
2023-05-14T15:37:39.111Z,101308.50
2023-05-14T15:39:40.592Z,101306.59
2023-05-14T15:41:42.070Z,101312.31
2023-05-14T15:43:43.552Z,101307.66
2023-05-14T15:45:46.018Z,101309.56
2023-05-14T15:47:47.536Z,101305.13
2023-05-14T15:49:49.494Z,101305.97
2023-05-14T15:51:51.055Z,101307.66
2023-05-14T15:53:53.401Z,101304.69
2023-05-14T15:55:55.015Z,101301.94
2023-05-14T15:57:57.262Z,101296.22
2023-05-14T15:59:58.735Z,101309.53
2023-05-14T16:02:00.353Z,101304.03
2023-05-14T16:04:01.990Z,101305.69
2023-05-14T16:06:03.537Z,101302.94
2023-05-14T16:08:05.177Z,101302.13
2023-05-14T16:10:06.944Z,101296.63
2023-05-14T16:12:08.576Z,101304.03
2023-05-14T16:14:10.608Z,101296.63
2023-05-14T16:16:12.128Z,101298.31
2023-05-14T16:18:13.916Z,101299.16
2023-05-14T16:20:15.543Z,101293.66
2023-05-14T16:22:17.017Z,101296.41
2023-05-14T16:24:18.518Z,101291.72
2023-05-14T16:26:20.023Z,101287.09
2023-05-14T16:28:21.702Z,101289.84
2023-05-14T16:30:23.448Z,101298.94
2023-05-14T16:32:25.138Z,101283.47
2023-05-14T16:34:26.717Z,101295.34
2023-05-14T16:36:28.345Z,101300.84
2023-05-14T16:38:29.865Z,101291.72
2023-05-14T16:40:31.328Z,101299.97
2023-05-14T16:42:32.951Z,101296.41
2023-05-14T16:44:34.484Z,101290.69
2023-05-14T16:46:36.263Z,101295.34
2023-05-14T16:48:38.008Z,101291.50
2023-05-14T16:50:39.469Z,101294.25
2023-05-14T16:52:40.990Z,101280.78
2023-05-14T16:54:42.425Z,101288.75
2023-05-14T16:56:47.957Z,101291.50
2023-05-14T16:58:49.773Z,101287.94
2023-05-14T17:00:51.174Z,101285.19
2023-05-14T17:02:54.283Z,101286.00
2023-05-14T17:04:56.060Z,101286.00
2023-05-14T17:06:57.733Z,101285.19
2023-05-14T17:08:59.303Z,101281.59
2023-05-14T17:11:00.859Z,101277.75
2023-05-14T17:13:02.659Z,101280.28
2023-05-14T17:15:05.688Z,101282.22
2023-05-14T17:17:07.425Z,101275.66
2023-05-14T17:19:09.077Z,101272.91
2023-05-14T17:21:10.620Z,101277.53
2023-05-14T17:23:12.046Z,101258.78
2023-05-14T17:25:13.607Z,101278.41
2023-05-14T17:27:16.665Z,101280.06
2023-05-14T17:29:18.469Z,101279.47
2023-05-14T17:31:21.712Z,101271.22
2023-05-14T17:33:23.446Z,101260.47
2023-05-14T17:35:25.707Z,101273.97
2023-05-14T17:37:27.419Z,101272.91
2023-05-14T17:39:29.185Z,101278.41
2023-05-14T17:41:30.635Z,101271.81
2023-05-14T17:43:32.146Z,101275.44
2023-05-14T17:45:42.767Z,101277.31
2023-05-14T17:47:54.393Z,101276.25
2023-05-14T17:49:55.850Z,101265.75
2023-05-14T17:51:57.312Z,101273.75
2023-05-14T17:53:58.913Z,101286.66
2023-05-14T17:56:00.394Z,101281.38
2023-05-14T17:58:01.973Z,101279.47
2023-05-14T18:00:04.902Z,101282.22
2023-05-14T18:02:07.765Z,101284.97
2023-05-14T18:04:09.489Z,101288.53
2023-05-14T18:06:11.536Z,101286.66
2023-05-14T18:08:13.106Z,101289.41
2023-05-14T18:10:14.630Z,101297.66
2023-05-14T18:12:16.081Z,101297.66
2023-05-14T18:14:18.496Z,101295.75
2023-05-14T18:16:19.993Z,101302.28
2023-05-14T18:18:21.756Z,101302.28
2023-05-14T18:20:23.306Z,101306.97
2023-05-14T18:22:24.824Z,101302.50
2023-05-14T18:24:26.561Z,101308.00
2023-05-14T18:26:28.429Z,101304.44
2023-05-14T18:28:29.824Z,101310.75
2023-05-14T18:30:31.298Z,101312.47
2023-05-14T18:32:32.745Z,101313.28
2023-05-14T18:34:34.249Z,101306.72
2023-05-14T18:36:35.836Z,101311.41
2023-05-14T18:38:37.403Z,101313.06
2023-05-14T18:40:38.891Z,101309.47
2023-05-14T18:42:41.166Z,101315.81
2023-05-14T18:44:44.563Z,101316.91
2023-05-14T18:46:46.265Z,101316.47
2023-05-14T18:48:47.756Z,101316.25
2023-05-14T18:50:49.158Z,101320.47
2023-05-14T18:52:50.741Z,101315.34
2023-05-14T18:54:52.583Z,101314.91
2023-05-14T18:56:54.291Z,101320.41
2023-05-14T18:58:58.953Z,101313.00
2023-05-14T19:01:00.732Z,101322.94
2023-05-14T19:03:02.532Z,101321.03
2023-05-14T19:05:04.115Z,101317.22
2023-05-14T19:07:05.794Z,101319.16
2023-05-14T19:09:07.346Z,101315.53
2023-05-14T19:11:08.839Z,101314.69
2023-05-14T19:13:10.384Z,101324.00
2023-05-14T19:15:11.989Z,101317.66
2023-05-14T19:17:13.481Z,101315.97
2023-05-14T19:19:15.185Z,101316.84
2023-05-14T19:21:16.786Z,101322.34
2023-05-14T19:23:18.295Z,101319.59
2023-05-14T19:25:19.739Z,101320.41
2023-05-14T19:27:21.210Z,101324.88
2023-05-14T19:29:22.649Z,101332.25
2023-05-14T19:31:24.721Z,101330.38
2023-05-14T19:33:26.243Z,101329.50
2023-05-14T19:35:27.816Z,101332.25
2023-05-14T19:37:29.356Z,101336.09
2023-05-14T19:39:30.920Z,101332.47
2023-05-14T19:41:32.422Z,101342.66
2023-05-14T19:43:33.865Z,101340.94
2023-05-14T19:45:39.390Z,101343.69
2023-05-14T19:47:41.589Z,101341.81
2023-05-14T19:49:43.093Z,101341.81
2023-05-14T19:51:44.998Z,101343.47
2023-05-14T19:53:46.606Z,101338.84
2023-05-14T19:55:48.031Z,101344.34
2023-05-14T19:57:49.472Z,101341.59
2023-05-14T19:59:50.992Z,101343.47
2023-05-14T20:01:54.516Z,101346.44
2023-05-14T20:03:55.975Z,101355.56
2023-05-14T20:05:58.027Z,101358.53
2023-05-14T20:07:59.528Z,101357.66
2023-05-14T20:10:01.098Z,101357.06
2023-05-14T20:12:02.657Z,101357.88
2023-05-14T20:14:04.091Z,101354.31
2023-05-14T20:16:05.820Z,101356.84
2023-05-14T20:18:07.495Z,101359.59
2023-05-14T20:20:10.066Z,101355.78
2023-05-14T20:22:11.498Z,101357.44
2023-05-14T20:24:13.012Z,101359.38
2023-05-14T20:26:14.769Z,101357.44
2023-05-14T20:28:16.202Z,101352.38
2023-05-14T20:30:17.722Z,101355.13
2023-05-14T20:32:24.640Z,101350.72
2023-05-14T20:34:26.115Z,101348.81
2023-05-14T20:36:29.526Z,101346.88
2023-05-14T20:38:32.605Z,101349.63
2023-05-14T20:40:34.053Z,101349.63
2023-05-14T20:42:36.395Z,101349.63
2023-05-14T20:44:37.992Z,101354.09
2023-05-14T20:46:39.611Z,101355.78
2023-05-14T20:48:41.119Z,101352.16
2023-05-14T20:50:42.900Z,101357.88
2023-05-14T20:52:44.452Z,101360.63
2023-05-14T20:54:46.192Z,101354.09
2023-05-14T20:56:47.624Z,101357.88
2023-05-14T20:58:49.152Z,101361.72
2023-05-14T21:00:51.020Z,101365.53
2023-05-14T21:02:53.085Z,101366.34
2023-05-14T21:04:54.936Z,101367.22
2023-05-14T21:06:56.728Z,101372.72
2023-05-14T21:08:58.179Z,101376.31
2023-05-14T21:10:59.620Z,101375.03
2023-05-14T21:13:01.321Z,101380.53
2023-05-14T21:15:02.984Z,101374.16
2023-05-14T21:17:04.608Z,101379.66
2023-05-14T21:19:06.103Z,101368.66
2023-05-14T21:21:07.735Z,101373.34
2023-05-14T21:23:09.205Z,101375.25
2023-05-14T21:25:11.021Z,101375.25
2023-05-14T21:27:12.508Z,101377.13
2023-05-14T21:29:14.051Z,101374.38
2023-05-14T21:31:15.449Z,101374.38
2023-05-14T21:33:16.965Z,101368.88
2023-05-14T21:35:18.492Z,101371.41
2023-05-14T21:37:21.218Z,101362.34
2023-05-14T21:39:22.718Z,101359.59
2023-05-14T21:41:24.206Z,101364.03
2023-05-14T21:43:25.777Z,101365.91
2023-05-14T21:45:27.420Z,101363.16
2023-05-14T21:47:29.253Z,101365.91
2023-05-14T21:49:30.805Z,101360.41
2023-05-14T21:51:33.156Z,101357.88
2023-05-14T21:53:34.766Z,101363.38
2023-05-14T21:55:36.398Z,101362.56
2023-05-14T21:57:37.882Z,101357.06
2023-05-14T21:59:39.325Z,101370.81
2023-05-14T22:01:56.050Z,101362.34
2023-05-14T22:04:02.340Z,101365.09
2023-05-14T22:06:03.960Z,101359.59
2023-05-14T22:08:05.981Z,101353.03
2023-05-14T22:10:07.572Z,101352.16
2023-05-14T22:12:09.131Z,101342.25
2023-05-14T22:14:10.717Z,101351.34
2023-05-14T22:16:13.742Z,101347.75
2023-05-14T22:18:15.752Z,101346.06
2023-05-14T22:20:17.217Z,101350.72
2023-05-14T22:22:18.861Z,101355.34
2023-05-14T22:24:20.914Z,101357.88
2023-05-14T22:26:22.388Z,101357.88
2023-05-14T22:28:23.876Z,101357.88
2023-05-14T22:30:25.414Z,101361.50
2023-05-14T22:32:27.022Z,101361.28
2023-05-14T22:34:28.488Z,101360.41
2023-05-14T22:36:30.475Z,101354.91
2023-05-14T22:38:31.931Z,101350.50
2023-05-14T22:40:33.472Z,101358.75
2023-05-14T22:42:34.895Z,101366.13
2023-05-14T22:44:37.057Z,101360.03
2023-05-14T22:46:38.523Z,101355.34
2023-05-14T22:48:40.036Z,101360.84
2023-05-14T22:50:41.724Z,101352.81
2023-05-14T22:52:43.194Z,101347.97
2023-05-14T22:54:45.344Z,101350.72
2023-05-14T22:56:47.029Z,101340.56
2023-05-14T22:58:48.527Z,101336.97
2023-05-14T23:00:50.207Z,101340.56
2023-05-14T23:02:51.721Z,101335.06
2023-05-14T23:04:53.376Z,101330.59
2023-05-14T23:06:55.061Z,101328.72
2023-05-14T23:08:56.595Z,101322.56
2023-05-14T23:10:58.012Z,101319.81
2023-05-14T23:12:59.716Z,101316.25
2023-05-14T23:15:01.497Z,101321.75